Sunday, April 22, 2018, 12:49 AM GMT
Back to Local

CXSH, Shawinigan CS , Que.

Location: , , Canada Lat: 46.583
Local Time: 12:49 AM GMT ( 0:49 GMT) Lon: -72.583
Time Zone: GMT Elev: 360 ft

Show me the last for .
Show Coded

Time T Td Feel RH Dir Speed Gust Alt SLP Vis Weather Sky Remarks
2018-04-22 00:00 46 18 42 33 320° 6 - - 30.25 0 None
2018-04-21 23:00 48 15 44 25 330° 9 - - 30.24 0 None
2018-04-21 22:00 50 17 46 27 330° 8 - - 30.22 0 None
2018-04-21 21:00 50 17 44 27 330° 9 17 - 30.21 0 None
2018-04-21 20:00 49 18 43 28 320° 9 18 - 30.22 0 None
2018-04-21 19:00 47 18 44 31 320° 7 - - 30.22 0 None
2018-04-21 18:00 48 17 45 28 320° 8 - - 30.24 0 None
2018-04-21 17:00 47 19 43 33 270° 7 - - 30.25 0 None
2018-04-21 16:00 45 20 43 36 360° 3 - - 30.27 0 None
2018-04-21 15:00 43 20 39 38 350° 7 - - 30.28 0 None
2018-04-21 14:00 42 20 37 40 360° 7 - - 30.29 0 None
2018-04-21 13:00 38 21 33 48 20° 7 - - 30.29 0 None
2018-04-21 12:00 38 23 36 53 290° 3 - - 30.29 0 None
2018-04-21 11:00 37 23 34 58 300° 3 - - 30.28 0 None
2018-04-21 10:00 34 24 - 68 300° 2 - - 30.27 0 None
2018-04-21 09:00 34 23 - 65 300° 2 - - 30.26 0 None
2018-04-21 08:00 32 23 28 71 340° 3 - - 30.25 0 None
2018-04-21 07:00 34 23 31 64 320° 3 - - 30.24 0 None
2018-04-21 06:00 37 23 34 57 290° 3 - - 30.23 0 None
2018-04-21 05:00 38 24 34 56 300° 5 - - 30.23 0 None
2018-04-21 04:00 38 24 36 54 280° 3 - - 30.23 0 None
2018-04-21 03:00 39 23 37 52 300° 3 - - 30.23 0 None
2018-04-21 02:00 40 23 38 51 300° 3 - - 30.23 0 None
2018-04-21 01:00 40 22 38 48 310° 3 - - 30.22 0 None

Support USWX by starting your Amazon purchase here.